createdAt,value
2023-03-28T00:01:19.537Z,4.27
2023-03-28T00:03:48.399Z,3.03
2023-03-28T00:06:19.028Z,3.60
2023-03-28T00:08:48.390Z,8.50
2023-03-28T00:11:21.643Z,2.13
2023-03-28T00:13:58.497Z,5.47
2023-03-28T00:16:32.785Z,5.07
2023-03-28T00:19:03.387Z,15.57
2023-03-28T00:21:34.318Z,3.97
2023-03-28T00:24:04.920Z,4.90
2023-03-28T00:26:37.581Z,5.77
2023-03-28T00:29:09.444Z,8.10
2023-03-28T00:31:39.664Z,2.77
2023-03-28T00:34:08.739Z,12.83
2023-03-28T00:36:40.043Z,3.73
2023-03-28T00:39:10.630Z,4.27
2023-03-28T00:41:44.378Z,6.50
2023-03-28T00:44:54.750Z,5.27
2023-03-28T00:47:44.481Z,2.90
2023-03-28T00:50:20.563Z,10.53
2023-03-28T00:52:53.642Z,6.63
2023-03-28T00:55:28.721Z,4.63
2023-03-28T00:58:00.518Z,2.40
2023-03-28T01:00:31.232Z,6.37
2023-03-28T01:03:03.111Z,4.50
2023-03-28T01:05:35.786Z,2.40
2023-03-28T01:08:09.837Z,7.47
2023-03-28T01:10:39.467Z,2.43
2023-03-28T01:13:12.283Z,4.00
2023-03-28T01:15:42.398Z,6.53
2023-03-28T01:18:13.052Z,2.03
2023-03-28T01:21:15.745Z,9.33
2023-03-28T01:24:23.851Z,8.47
2023-03-28T01:26:55.798Z,3.20
2023-03-28T01:30:02.297Z,6.67
2023-03-28T01:33:18.920Z,6.80
2023-03-28T01:36:33.952Z,5.50
2023-03-28T01:39:13.142Z,8.33
2023-03-28T01:41:51.079Z,6.03
2023-03-28T01:44:29.960Z,7.43
2023-03-28T01:47:04.529Z,9.97
2023-03-28T01:49:42.361Z,6.97
2023-03-28T01:52:19.727Z,7.50
2023-03-28T01:54:58.813Z,10.27
2023-03-28T01:57:34.466Z,6.80
2023-03-28T02:00:13.346Z,3.00
2023-03-28T02:03:07.065Z,6.33
2023-03-28T02:05:41.506Z,2.97
2023-03-28T02:08:15.744Z,9.67
2023-03-28T02:10:52.983Z,3.13
2023-03-28T02:13:49.111Z,2.23
2023-03-28T02:16:50.612Z,5.63
2023-03-28T02:19:40.261Z,3.40
2023-03-28T02:22:34.363Z,5.10
2023-03-28T02:25:31.675Z,7.03
2023-03-28T02:28:26.559Z,5.93
2023-03-28T02:31:15.324Z,7.23
2023-03-28T02:33:46.260Z,5.43
2023-03-28T02:36:29.960Z,9.57
2023-03-28T02:39:36.929Z,8.50
2023-03-28T02:42:37.299Z,6.83
2023-03-28T02:45:24.312Z,5.53
2023-03-28T02:48:03.654Z,8.80
2023-03-28T02:50:40.175Z,8.90
2023-03-28T02:53:14.158Z,8.17
2023-03-28T02:55:49.783Z,6.80
2023-03-28T02:58:44.583Z,10.17
2023-03-28T03:01:15.981Z,10.23
2023-03-28T03:03:46.169Z,3.90
2023-03-28T03:06:15.690Z,8.53
2023-03-28T03:08:44.839Z,5.40
2023-03-28T03:11:14.068Z,7.17
2023-03-28T03:13:44.387Z,4.87
2023-03-28T03:16:15.792Z,6.83
2023-03-28T03:18:44.806Z,7.07
2023-03-28T03:21:14.154Z,11.37
2023-03-28T03:23:44.665Z,4.10
2023-03-28T03:26:13.232Z,6.17
2023-03-28T03:28:45.693Z,6.53
2023-03-28T03:31:17.964Z,5.10
2023-03-28T03:34:19.698Z,6.43
2023-03-28T03:36:55.157Z,5.57
2023-03-28T03:39:25.574Z,3.07
2023-03-28T03:41:54.920Z,5.33
2023-03-28T03:44:24.020Z,5.87
2023-03-28T03:46:55.545Z,5.33
2023-03-28T03:49:24.444Z,4.23
2023-03-28T03:51:53.877Z,3.20
2023-03-28T03:54:23.110Z,5.37
2023-03-28T03:56:52.350Z,4.23
2023-03-28T03:59:21.737Z,4.63
2023-03-28T04:01:52.094Z,3.93
2023-03-28T04:04:42.992Z,2.87
2023-03-28T04:07:25.690Z,5.00
2023-03-28T04:09:58.960Z,6.80
2023-03-28T04:12:31.498Z,5.07
2023-03-28T04:15:00.837Z,4.40
2023-03-28T04:17:41.904Z,5.40
2023-03-28T04:20:18.139Z,5.27
2023-03-28T04:23:06.322Z,2.67
2023-03-28T04:25:37.293Z,5.27
2023-03-28T04:28:39.653Z,4.90
2023-03-28T04:31:12.457Z,3.13
2023-03-28T04:34:01.959Z,5.10
2023-03-28T04:36:34.734Z,7.57
2023-03-28T04:39:06.381Z,10.23
2023-03-28T04:42:06.449Z,4.20
2023-03-28T04:44:55.453Z,4.07
2023-03-28T04:47:26.124Z,4.30
2023-03-28T04:49:55.408Z,5.60
2023-03-28T04:52:26.465Z,5.50
2023-03-28T04:54:55.649Z,6.33
2023-03-28T04:57:26.834Z,2.80
2023-03-28T05:00:02.578Z,6.77
2023-03-28T05:03:01.779Z,3.97
2023-03-28T05:05:34.819Z,4.13
2023-03-28T05:08:09.828Z,3.10
2023-03-28T05:10:38.962Z,2.33
2023-03-28T05:13:09.880Z,2.60
2023-03-28T05:15:45.964Z,1.10
2023-03-28T05:18:33.167Z,6.90
2023-03-28T05:21:02.865Z,3.80
2023-03-28T05:23:33.614Z,5.00
2023-03-28T05:26:09.618Z,3.20
2023-03-28T05:28:40.929Z,3.63
2023-03-28T05:31:10.463Z,2.10
2023-03-28T05:33:39.959Z,3.80
2023-03-28T05:36:09.979Z,6.90
2023-03-28T05:38:40.843Z,3.77
2023-03-28T05:41:16.108Z,6.33
2023-03-28T05:43:45.562Z,5.27
2023-03-28T05:46:24.320Z,3.23
2023-03-28T05:48:54.710Z,2.07
2023-03-28T05:51:24.542Z,3.17
2023-03-28T05:53:55.503Z,3.03
2023-03-28T05:56:24.638Z,6.33
2023-03-28T05:58:53.766Z,2.50
2023-03-28T06:01:28.514Z,1.50
2023-03-28T08:18:57.079Z,2.77
2023-03-28T08:21:31.493Z,1.50
2023-03-28T08:24:00.588Z,2.23
2023-03-28T08:26:45.609Z,3.57
2023-03-28T08:29:16.566Z,1.10
2023-03-28T08:31:45.667Z,1.50
2023-03-28T08:34:17.301Z,1.47
2023-03-28T08:36:45.982Z,1.87
2023-03-28T08:39:27.713Z,1.93
2023-03-28T08:42:16.334Z,2.03
2023-03-28T08:44:54.723Z,2.00
2023-03-28T08:47:29.254Z,1.27
2023-03-28T08:50:03.852Z,1.97
2023-03-28T08:52:33.110Z,3.20
2023-03-28T08:55:07.173Z,1.20
2023-03-28T08:57:37.367Z,2.60
2023-03-28T09:00:15.174Z,2.23
2023-03-28T09:02:48.693Z,1.00
2023-03-28T09:05:30.868Z,1.37
2023-03-28T09:08:20.107Z,1.70
2023-03-28T09:11:00.078Z,1.37
2023-03-28T09:13:39.057Z,2.40
2023-03-28T09:16:34.787Z,1.70
2023-03-28T09:19:47.686Z,0.70
2023-03-28T09:22:46.630Z,2.53
2023-03-28T09:25:33.606Z,2.60
2023-03-28T09:28:15.087Z,1.80
2023-03-28T09:30:48.002Z,1.90
2023-03-28T09:33:22.108Z,3.00
2023-03-28T09:35:54.480Z,1.53
2023-03-28T09:38:28.405Z,3.17
2023-03-28T09:41:02.391Z,1.93
2023-03-28T09:43:45.709Z,2.43
2023-03-28T09:46:43.936Z,4.27
2023-03-28T09:49:19.203Z,7.90
2023-03-28T09:51:57.607Z,3.63
2023-03-28T09:54:31.296Z,4.67
2023-03-28T09:57:03.345Z,3.50
2023-03-28T09:59:46.209Z,3.60
2023-03-28T10:02:28.510Z,9.37
2023-03-28T10:05:00.356Z,5.23
2023-03-28T10:07:43.930Z,2.93
2023-03-28T10:10:35.519Z,2.70
2023-03-28T10:13:12.036Z,3.27
2023-03-28T10:15:48.366Z,1.87
2023-03-28T10:18:44.255Z,2.70
2023-03-28T10:21:37.230Z,6.13
2023-03-28T10:24:18.659Z,4.00
2023-03-28T10:26:59.775Z,1.97
2023-03-28T10:29:29.587Z,2.17
2023-03-28T10:31:59.790Z,1.30
2023-03-28T10:34:46.423Z,2.60
2023-03-28T10:37:33.411Z,1.40
2023-03-28T10:40:33.625Z,1.20
2023-03-28T10:43:38.312Z,0.80
2023-03-28T10:46:36.821Z,1.37
2023-03-28T10:49:29.554Z,1.30
2023-03-28T10:52:16.209Z,2.33
2023-03-28T10:55:02.090Z,0.60
2023-03-28T10:57:52.004Z,0.80
2023-03-28T11:00:28.219Z,3.87
2023-03-28T11:03:17.416Z,1.17
2023-03-28T11:06:08.075Z,2.00
2023-03-28T11:08:55.022Z,3.33
2023-03-28T11:11:44.613Z,1.10
2023-03-28T11:14:26.240Z,3.27
2023-03-28T11:17:03.942Z,0.83
2023-03-28T11:20:19.332Z,5.00
2023-03-28T11:23:06.918Z,3.60
2023-03-28T11:26:17.399Z,7.07
2023-03-28T11:29:33.182Z,8.07
2023-03-28T11:32:19.221Z,2.80
2023-03-28T11:35:05.023Z,2.30
2023-03-28T11:37:39.286Z,4.57
2023-03-28T11:40:20.444Z,2.97
2023-03-28T11:43:05.023Z,4.77
2023-03-28T11:45:51.343Z,3.00
2023-03-28T11:48:30.801Z,1.20
2023-03-28T11:51:09.419Z,1.70
2023-03-28T11:53:53.183Z,2.30
2023-03-28T11:56:48.476Z,1.93
2023-03-28T11:59:47.321Z,3.93
2023-03-28T12:02:38.009Z,3.20
2023-03-28T12:05:21.809Z,2.70
2023-03-28T12:07:56.908Z,1.77
2023-03-28T12:10:36.696Z,1.53
2023-03-28T12:13:20.486Z,1.20
2023-03-28T12:16:04.662Z,2.03
2023-03-28T12:18:42.025Z,1.33
2023-03-28T12:21:23.662Z,2.43
2023-03-28T12:24:02.622Z,1.87
2023-03-28T12:26:56.134Z,1.67
2023-03-28T12:29:35.200Z,1.90
2023-03-28T12:32:15.754Z,2.93
2023-03-28T12:34:52.924Z,1.47
2023-03-28T12:37:40.517Z,1.43
2023-03-28T12:40:24.105Z,1.93
2023-03-28T12:42:57.906Z,2.07
2023-03-28T12:45:32.028Z,2.83
2023-03-28T12:48:07.674Z,2.80
2023-03-28T12:50:48.056Z,2.07
2023-03-28T12:53:22.183Z,1.80
2023-03-28T12:55:52.974Z,0.73
2023-03-28T12:58:28.217Z,2.97
2023-03-28T13:01:36.560Z,3.60
2023-03-28T13:04:37.801Z,1.37
2023-03-28T13:07:26.345Z,3.33
2023-03-28T13:10:08.737Z,3.30
2023-03-28T13:12:49.714Z,2.00
2023-03-28T13:15:34.071Z,2.73
2023-03-28T13:18:30.292Z,2.50
2023-03-28T13:21:01.734Z,6.30
2023-03-28T13:23:37.022Z,4.07
2023-03-28T13:26:08.737Z,6.50
2023-03-28T13:28:44.584Z,2.97
2023-03-28T13:31:22.146Z,3.57
2023-03-28T13:33:55.155Z,4.53
2023-03-28T13:36:27.970Z,3.03
2023-03-28T13:39:27.808Z,3.30
2023-03-28T13:42:03.939Z,2.23
2023-03-28T13:44:44.088Z,3.73
2023-03-28T13:47:23.281Z,2.30
2023-03-28T13:50:01.394Z,4.23
2023-03-28T13:52:30.788Z,3.63
2023-03-28T13:55:05.911Z,3.50
2023-03-28T13:57:36.609Z,3.30
2023-03-28T14:00:09.009Z,1.97
2023-03-28T14:02:46.531Z,4.23
2023-03-28T14:05:21.890Z,2.80
2023-03-28T14:07:53.081Z,1.53
2023-03-28T14:10:29.598Z,2.80
2023-03-28T14:13:04.293Z,7.10
2023-03-28T14:15:38.997Z,1.60
2023-03-28T14:18:12.750Z,2.83
2023-03-28T14:20:43.014Z,4.90
2023-03-28T14:23:29.560Z,3.30
2023-03-28T14:26:00.698Z,1.93
2023-03-28T14:28:33.105Z,4.40
2023-03-28T14:31:03.445Z,1.83
2023-03-28T14:33:37.873Z,4.80
2023-03-28T14:36:08.233Z,2.17
2023-03-28T14:38:40.116Z,6.17
2023-03-28T14:41:15.296Z,2.07
2023-03-28T14:43:53.708Z,4.20
2023-03-28T14:46:26.092Z,2.17
2023-03-28T14:49:08.456Z,2.97
2023-03-28T14:51:45.922Z,4.63
2023-03-28T14:54:18.717Z,3.93
2023-03-28T14:56:48.317Z,10.07
2023-03-28T14:59:21.155Z,2.83
2023-03-28T15:01:52.598Z,3.93
2023-03-28T15:04:23.780Z,3.20
2023-03-28T15:06:57.549Z,3.03
2023-03-28T15:09:33.341Z,10.43
2023-03-28T15:12:08.460Z,3.13
2023-03-28T15:14:42.119Z,2.30
2023-03-28T15:17:19.672Z,2.30
2023-03-28T15:19:55.792Z,3.80
2023-03-28T15:22:29.119Z,2.73
2023-03-28T15:24:59.607Z,2.73
2023-03-28T15:27:33.851Z,2.47
2023-03-28T15:30:15.797Z,1.83
2023-03-28T15:32:45.908Z,3.07
2023-03-28T15:35:28.906Z,4.57
2023-03-28T15:38:08.812Z,4.47
2023-03-28T15:40:43.026Z,1.13
2023-03-28T15:43:37.446Z,2.13
2023-03-28T15:46:13.696Z,8.07
2023-03-28T15:48:44.415Z,3.50
2023-03-28T15:51:17.794Z,11.57
2023-03-28T15:53:48.791Z,5.50
2023-03-28T15:56:24.410Z,5.37
2023-03-28T15:58:56.437Z,2.67
2023-03-28T16:01:29.445Z,1.23
2023-03-28T16:04:29.832Z,1.87
2023-03-28T16:07:12.947Z,3.47
2023-03-28T16:09:43.757Z,5.70
2023-03-28T16:12:15.919Z,2.83
2023-03-28T16:14:49.509Z,4.23
2023-03-28T16:17:45.225Z,6.87
2023-03-28T16:20:29.053Z,1.73
2023-03-28T16:23:03.600Z,6.17
2023-03-28T16:25:33.114Z,3.10
2023-03-28T16:28:03.092Z,5.57
2023-03-28T16:30:36.360Z,2.80
2023-03-28T16:33:07.637Z,1.23
2023-03-28T16:35:40.313Z,4.00
2023-03-28T16:38:11.053Z,3.70
2023-03-28T16:40:39.885Z,4.20
2023-03-28T16:43:09.728Z,10.47
2023-03-28T16:45:38.979Z,1.73
2023-03-28T16:48:09.978Z,3.47
2023-03-28T16:50:39.117Z,4.73
2023-03-28T16:53:10.271Z,5.10
2023-03-28T16:55:39.809Z,4.80
2023-03-28T16:58:10.027Z,1.43
2023-03-28T17:00:43.802Z,4.60
2023-03-28T17:03:14.507Z,6.70
2023-03-28T17:05:43.939Z,2.97
2023-03-28T17:08:12.768Z,2.57
2023-03-28T17:10:43.157Z,2.93
2023-03-28T17:13:12.763Z,6.67
2023-03-28T17:15:42.941Z,3.63
2023-03-28T17:18:12.828Z,2.77
2023-03-28T17:20:43.062Z,4.47
2023-03-28T17:23:13.613Z,5.33
2023-03-28T17:25:54.068Z,5.63
2023-03-28T17:28:24.452Z,5.17
2023-03-28T17:30:54.723Z,4.37
2023-03-28T17:33:24.621Z,3.90
2023-03-28T17:35:55.153Z,3.63
2023-03-28T17:38:24.352Z,4.47
2023-03-28T17:40:53.261Z,2.77
2023-03-28T17:43:22.420Z,7.97
2023-03-28T17:45:55.637Z,5.23
2023-03-28T17:48:25.085Z,4.13
2023-03-28T17:50:56.530Z,4.67
2023-03-28T17:53:26.352Z,4.47
2023-03-28T17:55:55.943Z,8.83
2023-03-28T17:58:25.709Z,6.70
2023-03-28T18:00:55.009Z,8.37
2023-03-28T18:03:25.732Z,8.60
2023-03-28T18:06:35.514Z,6.27
2023-03-28T18:09:04.450Z,7.77
2023-03-28T18:11:33.390Z,5.40
2023-03-28T18:14:02.254Z,8.13
2023-03-28T18:16:31.325Z,4.27
2023-03-28T18:19:00.489Z,11.33
2023-03-28T18:21:29.699Z,6.80
2023-03-28T18:24:00.316Z,6.90
2023-03-28T18:26:30.851Z,7.87
2023-03-28T18:28:59.697Z,9.27
2023-03-28T18:31:29.226Z,8.47
2023-03-28T18:33:58.564Z,13.47
2023-03-28T18:36:28.270Z,9.20
2023-03-28T18:38:57.947Z,7.47
2023-03-28T18:41:28.841Z,7.77
2023-03-28T18:43:58.343Z,9.10
2023-03-28T18:46:30.267Z,14.30
2023-03-28T18:49:06.935Z,10.07
2023-03-28T18:51:39.434Z,10.20
2023-03-28T18:54:09.677Z,8.57
2023-03-28T18:56:40.922Z,14.93
2023-03-28T18:59:10.077Z,7.77
2023-03-28T19:01:42.374Z,11.00
2023-03-28T19:04:14.082Z,4.43
2023-03-28T19:06:44.246Z,5.93
2023-03-28T19:09:14.874Z,8.47
2023-03-28T19:11:45.977Z,11.57
2023-03-28T19:14:16.091Z,7.73
2023-03-28T19:16:45.774Z,8.43
2023-03-28T19:19:14.970Z,9.57
2023-03-28T19:21:44.812Z,9.90
2023-03-28T19:24:13.545Z,7.70
2023-03-28T19:26:42.614Z,15.43
2023-03-28T19:29:14.489Z,9.10
2023-03-28T19:31:44.278Z,15.63
2023-03-28T19:34:18.210Z,11.97
2023-03-28T19:36:48.138Z,11.10
2023-03-28T19:39:17.057Z,16.77
2023-03-28T19:41:46.286Z,13.77
2023-03-28T19:44:16.848Z,11.57
2023-03-28T19:46:46.450Z,9.50
2023-03-28T19:49:16.248Z,10.40
2023-03-28T19:51:45.261Z,9.43
2023-03-28T19:54:15.642Z,9.47
2023-03-28T19:56:44.976Z,12.10
2023-03-28T19:59:14.846Z,19.37
2023-03-28T20:01:45.826Z,13.13
2023-03-28T20:04:15.097Z,11.70
2023-03-28T20:06:44.542Z,10.37
2023-03-28T20:09:14.039Z,9.87
2023-03-28T20:11:43.755Z,16.27
2023-03-28T20:14:17.925Z,8.03
2023-03-28T20:16:49.725Z,12.33
2023-03-28T20:19:20.921Z,11.00
2023-03-28T20:21:50.529Z,11.70
2023-03-28T20:24:19.558Z,11.40
2023-03-28T20:26:49.347Z,10.27
2023-03-28T20:29:18.624Z,16.17
2023-03-28T20:31:49.795Z,11.73
2023-03-28T20:34:19.420Z,13.93
2023-03-28T20:36:50.566Z,11.63
2023-03-28T20:39:20.017Z,12.63
2023-03-28T20:41:48.903Z,15.70
2023-03-28T20:44:20.269Z,16.73
2023-03-28T20:46:50.625Z,21.80
2023-03-28T20:49:21.847Z,17.03
2023-03-28T20:51:51.236Z,29.67
2023-03-28T20:54:23.593Z,27.27
2023-03-28T20:56:53.004Z,20.90
2023-03-28T20:59:22.965Z,26.03
2023-03-28T21:01:55.356Z,23.43
2023-03-28T21:04:24.612Z,24.07
2023-03-28T21:06:55.888Z,25.93
2023-03-28T21:09:25.430Z,25.97
2023-03-28T21:11:55.056Z,24.63
2023-03-28T21:14:24.503Z,23.13
2023-03-28T21:16:58.419Z,19.63
2023-03-28T21:19:27.930Z,41.63
2023-03-28T21:21:57.470Z,35.67
2023-03-28T21:24:27.229Z,42.13
2023-03-28T21:26:57.529Z,46.60
2023-03-28T21:29:26.820Z,36.03
2023-03-28T21:32:00.877Z,35.93
2023-03-28T21:34:33.868Z,48.43
2023-03-28T21:37:04.025Z,49.40
2023-03-28T21:39:33.582Z,47.30
2023-03-28T21:42:02.889Z,50.50
2023-03-28T21:44:32.418Z,54.77
2023-03-28T21:47:03.560Z,52.40
2023-03-28T21:49:33.060Z,49.87
2023-03-28T21:52:02.266Z,52.57
2023-03-28T21:54:31.356Z,43.83
2023-03-28T21:57:00.350Z,50.70
2023-03-28T21:59:29.307Z,49.67
2023-03-28T22:02:00.271Z,47.47
